Time;durP1;ratioP1;P1;durP2;ratioP2;P2;SDS_P1;SDS_P2;PMS_P1;PMS_P2;Temp;Humidity;BMP_temperature;BMP_pressure;BME280_temperature;BME280_humidity;BME280_pressure;Samples;Min_cycle;Max_cycle;Signal;HPM_P1;HPM_P2
2023/03/05 00:02:00;;;;;;;2.80;0.90;;;;;;;-1.77;51.92;98208.03;107306;1257;75072;-39
2023/03/05 00:04:28;;;;;;;1.80;0.90;;;;;;;-1.80;52.39;98213.05;107280;1261;69911;-39
2023/03/05 00:06:56;;;;;;;6.20;1.00;;;;;;;-1.82;52.67;98209.88;107266;1257;73869;-39
2023/03/05 00:09:25;;;;;;;3.40;1.20;;;;;;;-1.84;52.82;98205.02;106525;1257;1003675;-39
2023/03/05 00:11:54;;;;;;;2.70;1.00;;;;;;;-1.86;52.78;98208.98;107296;1257;61558;-39
2023/03/05 00:14:22;;;;;;;1.90;1.00;;;;;;;-1.89;53.04;98216.23;107293;1258;73849;-39
2023/03/05 00:16:50;;;;;;;2.70;0.90;;;;;;;-1.91;53.03;98223.02;107333;1261;69946;-39
2023/03/05 00:19:19;;;;;;;2.30;1.00;;;;;;;-1.95;53.34;98223.30;107273;1263;72437;-39
2023/03/05 00:21:48;;;;;;;3.30;1.00;;;;;;;-1.97;53.07;98222.86;107167;1262;61338;-39
2023/03/05 00:24:18;;;;;;;1.80;0.90;;;;;;;-1.99;53.24;98233.33;107191;1259;61347;-39
2023/03/05 00:26:49;;;;;;;2.50;0.90;;;;;;;-2.03;53.80;98236.78;107264;1260;75072;-39
2023/03/05 00:29:19;;;;;;;2.20;1.00;;;;;;;-2.06;53.95;98239.26;107218;1263;69068;-40
2023/03/05 00:31:47;;;;;;;5.30;1.10;;;;;;;-2.09;54.14;98240.17;107199;1261;72776;-39
2023/03/05 00:34:17;;;;;;;2.40;1.10;;;;;;;-2.12;54.19;98233.88;107248;1257;61644;-40
2023/03/05 00:36:49;;;;;;;2.50;0.90;;;;;;;-2.14;53.82;98232.03;106620;1263;1002963;-40
2023/03/05 00:39:19;;;;;;;1.70;0.90;;;;;;;-2.18;53.26;98235.14;107256;1261;75024;-40
2023/03/05 00:41:47;;;;;;;;;;;;;;;-2.20;53.21;98234.42;106584;1261;1005311;-40
2023/03/05 00:44:16;;;;;;;3.60;1.20;;;;;;;-2.26;53.62;98239.30;107277;1261;73904;-40
2023/03/05 00:46:45;;;;;;;2.30;1.00;;;;;;;-2.30;53.89;98238.09;107265;1258;60537;-40
2023/03/05 00:49:13;;;;;;;3.40;1.10;;;;;;;-2.29;53.84;98244.00;107305;1258;61552;-39
2023/03/05 00:51:43;;;;;;;2.80;1.60;;;;;;;-2.29;53.56;98242.84;107241;1259;73969;-40
2023/03/05 00:54:11;;;;;;;1.90;0.90;;;;;;;-2.30;53.61;98249.45;106509;1261;1003673;-40
2023/03/05 00:56:40;;;;;;;3.90;1.10;;;;;;;-2.32;53.33;98251.94;106466;1261;1003017;-40
2023/03/05 00:59:09;;;;;;;2.70;1.00;;;;;;;-2.40;53.39;98249.48;107038;1257;60444;-39
2023/03/05 01:01:38;;;;;;;3.50;1.00;;;;;;;-2.33;53.65;98264.00;106549;1257;1003193;-40
2023/03/05 01:04:08;;;;;;;3.00;1.10;;;;;;;-2.35;53.32;98265.44;107305;1258;75017;-39
2023/03/05 01:06:41;;;;;;;4.70;0.90;;;;;;;-2.36;53.86;98265.45;107267;1257;69556;-40
2023/03/05 01:09:11;;;;;;;3.00;1.10;;;;;;;-2.38;53.41;98267.31;107246;1257;73617;-39
2023/03/05 01:11:39;;;;;;;1.70;0.90;;;;;;;-2.40;53.70;98274.36;107228;1259;61352;-39
2023/03/05 01:14:08;;;;;;;2.50;1.00;;;;;;;-2.42;53.64;98275.15;106506;1258;1003023;-39
2023/03/05 01:16:36;;;;;;;1.50;1.10;;;;;;;-2.44;53.78;98273.77;106517;1257;1003549;-39
2023/03/05 01:19:05;;;;;;;2.00;0.90;;;;;;;-2.46;53.83;98270.70;107307;1257;68957;-39
2023/03/05 01:21:35;;;;;;;3.60;1.00;;;;;;;-2.49;53.84;98273.98;106484;1257;1003346;-40
2023/03/05 01:24:12;;;;;;;0.90;0.70;;;;;;;-2.50;54.16;98277.48;106516;1263;1003547;-40
2023/03/05 01:26:40;;;;;;;2.50;1.00;;;;;;;-2.52;53.99;98275.98;107236;1257;61566;-39
2023/03/05 01:29:09;;;;;;;2.90;0.90;;;;;;;-2.54;54.16;98275.97;107278;1257;75076;-39
2023/03/05 01:31:37;;;;;;;2.70;1.00;;;;;;;-2.55;54.38;98279.48;107051;1262;70000;-40
2023/03/05 01:34:06;;;;;;;1.80;0.90;;;;;;;-2.55;54.39;98278.95;107283;1258;73888;-39
2023/03/05 01:36:40;;;;;;;4.20;1.10;;;;;;;-2.56;54.22;98280.56;107246;1258;60170;-39
2023/03/05 01:39:09;;;;;;;1.60;1.00;;;;;;;-2.55;54.46;98290.48;107260;1257;60362;-39
2023/03/05 01:41:37;;;;;;;2.60;0.90;;;;;;;-2.53;54.26;98286.71;106500;1263;1002881;-39
2023/03/05 01:44:06;;;;;;;2.70;1.20;;;;;;;-2.58;54.81;98275.26;107258;1257;69924;-40
2023/03/05 01:46:36;;;;;;;3.90;1.40;;;;;;;-2.48;54.86;98288.27;107203;1262;73873;-39
2023/03/05 01:49:32;;;;;;;2.90;1.20;;;;;;;-2.46;55.01;98294.23;107292;1260;61553;-39
2023/03/05 01:52:05;;;;;;;5.40;1.20;;;;;;;-2.45;54.98;98292.73;107261;1258;60434;-39
2023/03/05 01:54:40;;;;;;;2.60;0.80;;;;;;;-2.47;54.96;98286.82;107268;1261;74859;-40
2023/03/05 01:57:11;;;;;;;3.90;1.50;;;;;;;-2.47;55.51;98290.98;107253;1257;69937;-39
2023/03/05 01:59:41;;;;;;;2.90;0.90;;;;;;;-2.46;55.73;98297.52;107023;1257;72904;-39
2023/03/05 02:02:10;;;;;;;3.00;1.20;;;;;;;-2.45;56.04;98293.95;107232;1258;61730;-39
2023/03/05 02:04:51;;;;;;;4.10;1.20;;;;;;;-2.44;55.96;98297.81;106490;1256;1003805;-39
2023/03/05 02:07:20;;;;;;;3.50;1.10;;;;;;;-2.44;55.86;98300.92;107115;1258;73904;-39
2023/03/05 02:09:50;;;;;;;2.80;1.20;;;;;;;-2.45;55.99;98300.01;106280;1257;1004920;-39
2023/03/05 02:12:19;;;;;;;2.00;1.10;;;;;;;-2.46;56.09;98304.05;107294;1257;73956;-40
2023/03/05 02:14:48;;;;;;;3.10;1.30;;;;;;;-2.46;56.33;98310.27;107219;1258;61524;-39
2023/03/05 02:17:18;;;;;;;2.80;1.30;;;;;;;-2.46;56.45;98313.77;106310;1263;1002903;-39
2023/03/05 02:19:54;;;;;;;3.70;1.30;;;;;;;-2.46;56.54;98312.14;107205;1258;73973;-40
2023/03/05 02:22:23;;;;;;;3.30;1.10;;;;;;;-2.47;56.65;98320.84;106548;1261;1016454;-39
2023/03/05 02:24:53;;;;;;;2.10;1.00;;;;;;;-2.48;56.68;98321.16;107235;1257;72854;-39
2023/03/05 02:27:23;;;;;;;3.00;1.40;;;;;;;-2.51;56.79;98321.10;107257;1261;61542;-39
2023/03/05 02:29:54;;;;;;;2.50;1.10;;;;;;;-2.53;56.69;98319.70;106484;1259;1003691;-40
2023/03/05 02:32:22;;;;;;;2.50;1.20;;;;;;;-2.53;56.85;98321.27;107252;1258;75092;-39
2023/03/05 02:34:51;;;;;;;4.40;1.10;;;;;;;-2.54;57.11;98317.73;107362;1257;69637;-39
2023/03/05 02:37:20;;;;;;;4.50;1.50;;;;;;;-2.54;57.32;98321.86;107218;1258;73626;-40
2023/03/05 02:39:51;;;;;;;3.80;1.60;;;;;;;-2.55;57.45;98324.50;107207;1257;61533;-39
2023/03/05 02:42:23;;;;;;;2.90;1.10;;;;;;;-2.54;57.42;98329.49;107263;1257;61547;-39
2023/03/05 02:44:52;;;;;;;2.50;0.90;;;;;;;-2.54;57.60;98331.37;107294;1257;75040;-40
2023/03/05 02:47:21;;;;;;;3.10;1.50;;;;;;;-2.54;57.57;98332.68;107185;1257;68790;-39
2023/03/05 02:49:50;;;;;;;4.50;1.60;;;;;;;-2.52;57.51;98338.76;106379;1257;1003057;-39
2023/03/05 02:52:21;;;;;;;2.70;1.30;;;;;;;-2.51;57.86;98345.79;107158;1258;61384;-39
2023/03/05 02:54:51;;;;;;;4.80;1.30;;;;;;;-2.50;57.88;98342.73;107408;1254;61833;-40
2023/03/05 02:57:20;;;;;;;5.10;1.50;;;;;;;-2.49;58.12;98346.81;107571;1253;74042;-39
2023/03/05 02:59:49;;;;;;;4.70;1.50;;;;;;;-2.52;57.74;98343.76;107568;1254;69991;-40
2023/03/05 03:02:18;;;;;;;3.30;1.20;;;;;;;-2.52;58.05;98350.75;107410;1254;73113;-39
2023/03/05 03:04:47;;;;;;;2.90;1.20;;;;;;;-2.52;57.78;98346.34;107603;1255;61801;-39
2023/03/05 03:07:15;;;;;;;5.90;1.30;;;;;;;-2.52;57.93;98348.08;106817;1254;1003118;-39
2023/03/05 03:09:44;;;;;;;4.70;1.50;;;;;;;-2.50;58.17;98350.27;107555;1254;74804;-39
2023/03/05 03:12:13;;;;;;;2.30;1.10;;;;;;;-2.47;58.11;98350.26;106949;1254;1003024;-39
2023/03/05 03:14:42;;;;;;;3.10;1.30;;;;;;;-2.47;57.84;98346.26;107610;1254;73334;-39
2023/03/05 03:17:12;;;;;;;4.70;1.60;;;;;;;-2.46;57.81;98346.42;107642;1254;61296;-39
2023/03/05 03:19:43;;;;;;;2.60;1.10;;;;;;;-2.48;57.94;98347.25;106916;1253;1003392;-40
2023/03/05 03:22:12;;;;;;;2.90;1.10;;;;;;;-2.50;57.92;98344.81;106910;1254;1003113;-39
2023/03/05 03:24:41;;;;;;;;;;;;;;;-2.51;57.92;98353.90;106907;1254;1003591;-39
2023/03/05 03:27:09;;;;;;;3.30;1.10;;;;;;;-2.57;58.03;98350.70;107669;1254;72627;-39
2023/03/05 03:29:38;;;;;;;4.50;1.30;;;;;;;-2.61;58.22;98347.81;107595;1254;61611;-39
2023/03/05 03:32:07;;;;;;;7.10;1.30;;;;;;;-2.58;58.38;98350.19;107613;1254;61753;-39
2023/03/05 03:34:39;;;;;;;3.70;1.30;;;;;;;-2.56;58.32;98345.84;106715;1254;1003482;-40
2023/03/05 03:39:54;;;;;;;3.10;1.20;;;;;;;-2.55;58.47;98346.73;104341;1289;600980;-40
2023/03/05 03:42:23;;;;;;;4.40;1.20;;;;;;;-2.56;58.55;98347.65;106754;1264;61541;-39
2023/03/05 03:44:51;;;;;;;4.10;1.40;;;;;;;-2.53;58.54;98352.67;106789;1264;61876;-39
2023/03/05 03:47:20;;;;;;;1.80;1.10;;;;;;;-2.51;58.72;98353.21;106791;1264;73440;-40
2023/03/05 03:49:53;;;;;;;4.90;1.20;;;;;;;-2.50;58.63;98354.14;106065;1269;1004670;-40
2023/03/05 03:52:21;;;;;;;2.90;1.10;;;;;;;-2.49;58.61;98356.52;106830;1268;72593;-39
2023/03/05 03:54:54;;;;;;;3.60;1.50;;;;;;;-2.48;58.53;98358.98;106705;1263;59205;-39
2023/03/05 03:57:25;;;;;;;3.00;1.50;;;;;;;-2.48;58.19;98354.09;106898;1262;61208;-40
2023/03/05 03:59:53;;;;;;;4.50;1.40;;;;;;;-2.47;57.98;98349.19;106903;1264;72997;-40
2023/03/05 04:02:22;;;;;;;3.30;1.00;;;;;;;-2.45;58.52;98351.17;106183;1263;1003434;-40
2023/03/05 04:04:50;;;;;;;8.80;1.80;;;;;;;-2.53;58.54;98339.41;106097;1263;1002661;-40
2023/03/05 04:07:19;;;;;;;3.50;1.30;;;;;;;-2.42;59.11;98352.74;106885;1263;60422;-40
2023/03/05 04:09:48;;;;;;;5.10;1.30;;;;;;;-2.39;58.85;98354.02;106091;1264;1003120;-40
2023/03/05 04:12:17;;;;;;;3.10;0.90;;;;;;;-2.37;59.08;98356.35;106841;1263;73566;-40
2023/03/05 04:14:48;;;;;;;4.80;1.40;;;;;;;-2.36;58.59;98355.27;106847;1263;68901;-40
2023/03/05 04:17:17;;;;;;;3.40;1.20;;;;;;;-2.36;58.77;98355.58;106826;1264;73959;-40
2023/03/05 04:19:46;;;;;;;3.60;1.20;;;;;;;-2.34;58.95;98351.94;106841;1263;61570;-40
2023/03/05 04:22:18;;;;;;;3.30;1.40;;;;;;;-2.33;58.50;98357.75;106833;1263;61473;-40
2023/03/05 04:24:47;;;;;;;2.40;1.10;;;;;;;-2.33;58.38;98358.45;106875;1264;74155;-40
2023/03/05 04:27:15;;;;;;;2.00;1.20;;;;;;;-2.42;58.43;98339.16;106117;1269;1002909;-40
2023/03/05 04:30:07;;;;;;;2.00;1.20;;;;;;;-2.32;58.42;98354.86;106950;1260;75318;-39
2023/03/05 04:32:35;;;;;;;4.80;1.40;;;;;;;-2.33;58.16;98359.66;106967;1265;61243;-39
2023/03/05 04:35:04;;;;;;;2.80;1.20;;;;;;;-2.33;58.29;98356.41;106280;1260;1003419;-39
2023/03/05 04:37:33;;;;;;;3.10;1.30;;;;;;;-2.34;58.40;98355.27;106915;1260;74191;-39
2023/03/05 04:40:03;;;;;;;2.40;1.00;;;;;;;-2.33;58.45;98362.15;107007;1261;69944;-39
2023/03/05 04:42:31;;;;;;;2.40;1.30;;;;;;;-2.34;58.85;98357.73;107045;1261;72775;-39
2023/03/05 04:45:01;;;;;;;2.00;1.00;;;;;;;-2.34;58.78;98359.31;106960;1260;60488;-39
2023/03/05 04:47:30;;;;;;;2.80;1.30;;;;;;;-2.32;58.66;98360.66;107064;1260;61482;-39
2023/03/05 04:50:04;;;;;;;2.30;1.10;;;;;;;-2.29;58.96;98363.66;107036;1260;73248;-39
2023/03/05 04:52:33;;;;;;;2.40;1.10;;;;;;;-2.27;59.06;98366.48;106304;1260;1003447;-39
2023/03/05 04:55:02;;;;;;;2.90;1.30;;;;;;;-2.24;59.17;98375.81;106255;1260;1002662;-40
2023/03/05 04:57:31;;;;;;;3.40;1.20;;;;;;;-2.19;59.49;98382.35;107029;1261;61387;-39
2023/03/05 05:00:00;;;;;;;4.80;1.70;;;;;;;-2.18;58.99;98385.40;106292;1260;1002900;-39
2023/03/05 05:02:30;;;;;;;3.60;1.10;;;;;;;-2.19;58.34;98387.08;106993;1260;73969;-39
2023/03/05 05:04:58;;;;;;;3.60;1.40;;;;;;;-2.20;58.52;98388.94;107003;1260;69874;-39
2023/03/05 05:07:28;;;;;;;2.40;1.40;;;;;;;-2.19;58.31;98392.23;106247;1260;1003208;-39
2023/03/05 05:09:57;;;;;;;;;;;;;;;-2.19;58.26;98391.48;106962;1260;61558;-39
2023/03/05 05:12:28;;;;;;;3.40;1.50;;;;;;;-2.25;58.26;98395.33;106940;1261;61228;-39
2023/03/05 05:14:58;;;;;;;3.80;1.40;;;;;;;-2.31;58.21;98395.02;106988;1260;72654;-40
2023/03/05 05:17:29;;;;;;;3.70;1.20;;;;;;;-2.30;58.17;98401.39;106917;1261;69361;-41
2023/03/05 05:20:05;;;;;;;4.70;1.20;;;;;;;-2.28;58.06;98403.08;107027;1265;73882;-40
2023/03/05 05:22:35;;;;;;;2.90;1.00;;;;;;;-2.26;58.04;98402.25;107066;1260;61313;-40
2023/03/05 05:25:04;;;;;;;3.80;1.20;;;;;;;-2.26;58.02;98401.23;107072;1261;59986;-40
2023/03/05 05:27:33;;;;;;;6.00;1.20;;;;;;;-2.26;58.19;98405.22;107033;1260;73267;-40
2023/03/05 05:30:02;;;;;;;2.60;1.20;;;;;;;-2.26;58.25;98405.22;107048;1260;69837;-40
2023/03/05 05:32:32;;;;;;;3.40;1.10;;;;;;;-2.26;58.28;98406.66;106336;1260;1003097;-40
2023/03/05 05:35:01;;;;;;;5.10;1.30;;;;;;;-2.25;58.35;98408.77;106323;1260;1003747;-40
2023/03/05 05:37:30;;;;;;;3.20;1.20;;;;;;;-2.23;58.02;98410.67;107058;1260;61639;-41
2023/03/05 05:39:58;;;;;;;2.70;1.10;;;;;;;-2.29;58.22;98407.88;107061;1260;73297;-40
2023/03/05 05:42:28;;;;;;;3.40;1.10;;;;;;;-2.19;58.29;98418.77;107044;1260;69735;-40
2023/03/05 05:44:58;;;;;;;4.10;1.50;;;;;;;-2.14;58.43;98413.25;107104;1260;72611;-40
2023/03/05 05:47:26;;;;;;;4.20;1.30;;;;;;;-2.10;58.34;98413.80;107064;1260;60355;-40
2023/03/05 05:49:56;;;;;;;3.70;1.40;;;;;;;-2.06;58.10;98416.67;107079;1260;61224;-41
2023/03/05 05:52:24;;;;;;;2.80;1.40;;;;;;;-2.03;57.82;98420.91;107059;1260;74264;-40
2023/03/05 05:54:53;;;;;;;5.60;1.50;;;;;;;-2.05;57.38;98410.02;107046;1260;70129;-40
2023/03/05 05:57:21;;;;;;;4.90;1.40;;;;;;;-2.15;57.47;98398.83;107046;1260;73924;-40
2023/03/05 05:59:50;;;;;;;3.80;1.30;;;;;;;-2.05;57.89;98410.19;107060;1261;61359;-40
2023/03/05 06:02:19;;;;;;;3.60;1.30;;;;;;;-2.04;58.18;98415.63;107250;1257;61437;-40
2023/03/05 06:04:47;;;;;;;2.00;1.20;;;;;;;-2.05;58.44;98414.21;107277;1263;72624;-40
2023/03/05 06:07:16;;;;;;;3.70;1.40;;;;;;;-2.06;58.51;98418.48;107249;1257;69955;-40
2023/03/05 06:09:45;;;;;;;3.10;1.30;;;;;;;-2.04;58.51;98418.00;107266;1257;73850;-40
2023/03/05 06:12:15;;;;;;;3.40;1.40;;;;;;;-2.01;58.32;98417.46;107263;1263;61476;-40
2023/03/05 06:15:05;;;;;;;5.00;1.30;;;;;;;-1.96;58.33;98420.08;107199;1257;62854;-41
2023/03/05 06:17:33;;;;;;;4.40;1.50;;;;;;;-1.94;58.17;98427.17;107308;1257;73173;-41
2023/03/05 06:20:05;;;;;;;3.90;1.40;;;;;;;-1.92;57.94;98418.27;107299;1258;70024;-41
2023/03/05 06:22:36;;;;;;;5.20;1.40;;;;;;;-1.88;57.96;98424.19;107295;1257;71658;-40
2023/03/05 06:25:07;;;;;;;;;;;;;;;-1.86;58.01;98425.40;107331;1257;60351;-39
2023/03/05 06:27:36;;;;;;;3.80;1.40;;;;;;;-1.88;58.31;98426.78;107224;1257;61286;-40
2023/03/05 06:30:06;;;;;;;3.40;1.60;;;;;;;-1.87;58.02;98429.64;107288;1257;73104;-40
2023/03/05 06:32:37;;;;;;;5.30;1.70;;;;;;;-1.84;57.48;98430.88;107295;1257;69990;-39
2023/03/05 06:35:06;;;;;;;5.10;1.60;;;;;;;-1.84;57.17;98437.27;107276;1258;73901;-39
2023/03/05 06:37:36;;;;;;;3.70;1.40;;;;;;;-1.84;57.05;98441.19;107327;1257;61092;-40
2023/03/05 06:40:06;;;;;;;4.00;1.50;;;;;;;-1.81;57.18;98445.48;107318;1257;61587;-39
2023/03/05 06:42:35;;;;;;;4.00;1.30;;;;;;;-1.75;57.44;98444.17;107266;1257;74836;-40
2023/03/05 06:45:04;;;;;;;3.60;1.10;;;;;;;-1.68;57.20;98441.57;107296;1257;68833;-39
2023/03/05 06:47:33;;;;;;;;;;;;;;;-1.60;56.80;98440.16;107279;1257;73724;-39
2023/03/05 06:50:04;;;;;;;3.00;1.60;;;;;;;-1.59;57.20;98442.95;107238;1257;59872;-39
2023/03/05 06:52:33;;;;;;;2.00;1.20;;;;;;;-1.56;57.19;98442.13;107311;1257;61608;-40
2023/03/05 06:55:04;;;;;;;2.70;1.30;;;;;;;-1.50;56.68;98440.02;106567;1262;1003073;-40
2023/03/05 06:57:33;;;;;;;4.50;1.60;;;;;;;-1.45;56.95;98441.80;106571;1261;1003304;-40
2023/03/05 07:00:09;;;;;;;5.00;1.60;;;;;;;-1.38;56.90;98447.13;107037;1262;72824;-40
2023/03/05 07:02:38;;;;;;;3.30;1.50;;;;;;;-1.34;56.73;98448.88;107338;1257;60218;-40
2023/03/05 07:05:07;;;;;;;4.30;1.60;;;;;;;-1.31;56.27;98452.73;107354;1257;61381;-40
2023/03/05 07:07:38;;;;;;;3.00;1.50;;;;;;;-1.35;56.14;98442.86;107319;1257;74089;-40
2023/03/05 07:10:07;;;;;;;4.30;1.60;;;;;;;-1.20;56.30;98463.66;107297;1260;70171;-40
2023/03/05 07:12:42;;;;;;;3.10;1.10;;;;;;;-1.17;55.42;98460.73;107228;1257;73882;-40
2023/03/05 07:15:11;;;;;;;5.30;1.70;;;;;;;-1.12;55.58;98461.70;107315;1258;61596;-40
2023/03/05 07:17:40;;;;;;;4.50;1.40;;;;;;;-1.08;55.80;98460.95;107360;1257;59924;-40
2023/03/05 07:20:10;;;;;;;5.10;1.50;;;;;;;-1.03;55.81;98463.55;107297;1263;74105;-40
2023/03/05 07:22:40;;;;;;;3.60;1.50;;;;;;;-1.01;55.45;98464.55;107314;1263;69983;-40
2023/03/05 07:25:10;;;;;;;5.30;1.40;;;;;;;-1.01;55.39;98472.47;107320;1257;73547;-40
2023/03/05 07:27:39;;;;;;;4.50;1.70;;;;;;;-1.00;55.62;98470.63;107313;1257;61580;-40
2023/03/05 07:30:08;;;;;;;6.20;1.70;;;;;;;-1.00;56.21;98477.02;107344;1262;61195;-40
2023/03/05 07:32:36;;;;;;;3.20;1.30;;;;;;;-0.94;56.43;98478.03;107270;1263;74210;-40
2023/03/05 07:35:06;;;;;;;4.60;1.50;;;;;;;-0.86;55.88;98479.00;106483;1257;1002840;-40
2023/03/05 07:37:35;;;;;;;4.20;1.50;;;;;;;-0.82;55.23;98476.60;107303;1263;72431;-40
2023/03/05 07:40:05;;;;;;;5.50;1.90;;;;;;;-0.79;55.23;98485.24;106509;1257;1003038;-40
2023/03/05 07:42:38;;;;;;;6.00;2.00;;;;;;;-0.74;55.26;98488.26;107271;1261;60797;-40
2023/03/05 07:45:14;;;;;;;6.40;1.80;;;;;;;-0.69;55.19;98491.13;107297;1257;73930;-40
2023/03/05 07:47:42;;;;;;;3.30;1.60;;;;;;;-0.61;55.41;98495.20;107358;1260;69874;-40
2023/03/05 07:50:10;;;;;;;4.70;1.90;;;;;;;-0.48;54.66;98494.16;107287;1257;73920;-40
2023/03/05 07:52:39;;;;;;;3.90;1.70;;;;;;;-0.39;54.24;98498.13;107281;1261;60319;-40
2023/03/05 07:55:09;;;;;;;4.40;1.40;;;;;;;-0.39;53.60;98499.63;107300;1257;60456;-40
2023/03/05 07:57:38;;;;;;;4.90;1.80;;;;;;;-0.41;53.91;98490.89;107332;1257;73040;-40
2023/03/05 08:00:07;;;;;;;4.70;1.60;;;;;;;-0.37;53.95;98493.29;106513;1262;1003011;-40
2023/03/05 08:02:39;;;;;;;5.20;1.60;;;;;;;-0.27;53.84;98496.78;107271;1263;73689;-40
2023/03/05 08:05:08;;;;;;;7.20;1.80;;;;;;;-0.16;53.61;98494.81;107222;1257;60802;-40
2023/03/05 08:07:51;;;;;;;4.80;1.90;;;;;;;-0.06;53.33;98501.98;107272;1259;61479;-40
2023/03/05 08:10:19;;;;;;;7.00;2.00;;;;;;;0.03;52.60;98502.63;107334;1262;73458;-40
2023/03/05 08:12:48;;;;;;;4.70;1.70;;;;;;;0.08;51.73;98500.95;107359;1258;69480;-40
2023/03/05 08:15:18;;;;;;;4.00;1.50;;;;;;;0.09;51.64;98496.33;107216;1258;73532;-40
2023/03/05 08:17:46;;;;;;;4.10;1.50;;;;;;;0.15;51.81;98495.92;107193;1258;60465;-40
2023/03/05 08:20:14;;;;;;;5.80;1.60;;;;;;;0.29;52.31;98497.80;107196;1259;60331;-40
2023/03/05 08:22:45;;;;;;;1.30;0.90;;;;;;;0.49;51.68;98493.80;107231;1262;74083;-40
2023/03/05 08:25:17;;;;;;;1.90;1.20;;;;;;;0.74;51.59;98492.77;107205;1263;69955;-40
2023/03/05 08:27:48;;;;;;;5.20;1.90;;;;;;;1.04;51.24;98489.61;107213;1260;73552;-40
2023/03/05 08:30:18;;;;;;;4.70;1.60;;;;;;;1.32;49.84;98492.67;106472;1262;1003716;-40
2023/03/05 08:32:48;;;;;;;2.90;1.10;;;;;;;1.47;49.17;98493.52;107188;1259;61253;-40
2023/03/05 08:35:17;;;;;;;4.40;1.50;;;;;;;1.63;49.13;98491.70;107182;1261;75049;-39
2023/03/05 08:37:53;;;;;;;4.50;1.40;;;;;;;1.86;48.66;98494.70;107205;1263;69893;-39
2023/03/05 08:40:22;;;;;;;4.90;1.30;;;;;;;2.05;48.44;98493.73;107217;1259;73961;-40
2023/03/05 08:42:51;;;;;;;2.90;1.20;;;;;;;2.25;48.57;98500.23;107205;1262;60780;-40
2023/03/05 08:45:22;;;;;;;2.80;1.20;;;;;;;2.48;48.03;98494.34;107193;1263;61425;-40
2023/03/05 08:47:51;;;;;;;3.60;1.30;;;;;;;2.64;46.77;98494.85;107227;1260;75218;-40
2023/03/05 08:50:25;;;;;;;5.40;2.00;;;;;;;2.69;46.21;98493.27;107230;1262;69651;-39
2023/03/05 08:52:55;;;;;;;4.00;1.60;;;;;;;2.72;46.44;98500.41;107149;1264;73873;-40
2023/03/05 08:55:24;;;;;;;2.50;1.10;;;;;;;2.84;46.48;98503.60;107198;1263;60391;-40
2023/03/05 08:57:52;;;;;;;3.00;1.50;;;;;;;3.02;46.19;98501.02;107203;1257;61491;-40
2023/03/05 09:00:21;;;;;;;4.80;1.80;;;;;;;3.23;46.30;98501.36;107242;1257;75149;-40
2023/03/05 09:02:51;;;;;;;3.90;1.50;;;;;;;3.42;45.35;98499.47;107270;1259;68776;-40
2023/03/05 09:05:19;;;;;;;5.60;2.00;;;;;;;3.53;45.17;98492.60;107241;1263;70901;-40
2023/03/05 09:07:48;;;;;;;4.10;1.70;;;;;;;3.73;44.78;98501.84;107214;1262;60760;-41
2023/03/05 09:10:17;;;;;;;3.60;1.30;;;;;;;3.79;43.66;98504.73;107217;1261;61535;-40
2023/03/05 09:12:45;;;;;;;2.80;1.40;;;;;;;3.81;43.54;98497.89;107263;1257;74947;-40
2023/03/05 09:15:16;;;;;;;3.40;1.70;;;;;;;3.80;44.10;98498.03;107210;1258;69812;-40
2023/03/05 09:17:45;;;;;;;3.00;1.20;;;;;;;3.78;44.28;98494.42;106484;1263;1003767;-40
2023/03/05 09:20:14;;;;;;;4.00;1.50;;;;;;;3.85;44.97;98493.95;107183;1262;59761;-40
2023/03/05 09:22:42;;;;;;;6.00;1.80;;;;;;;3.98;43.35;98493.34;107235;1257;61412;-40
2023/03/05 09:25:11;;;;;;;5.10;1.80;;;;;;;3.90;43.25;98493.70;107215;1258;73986;-41
2023/03/05 09:27:40;;;;;;;5.60;1.70;;;;;;;3.78;44.06;98492.18;107210;1258;69294;-41
2023/03/05 09:30:10;;;;;;;3.60;1.60;;;;;;;3.80;44.33;98488.20;107221;1257;73989;-40
2023/03/05 09:32:39;;;;;;;4.50;1.40;;;;;;;3.91;44.34;98492.83;107214;1258;60749;-41
2023/03/05 09:35:09;;;;;;;4.30;1.60;;;;;;;4.06;43.64;98487.84;106446;1257;1002857;-41
2023/03/05 09:37:38;;;;;;;3.70;1.80;;;;;;;4.16;43.24;98485.23;107217;1262;75152;-41
2023/03/05 09:40:10;;;;;;;3.30;1.60;;;;;;;4.26;42.73;98490.89;107225;1258;69878;-41
2023/03/05 09:42:49;;;;;;;4.50;1.40;;;;;;;4.34;43.00;98484.92;107174;1263;73635;-41
2023/03/05 09:45:24;;;;;;;4.20;1.50;;;;;;;4.48;42.98;98483.86;107231;1258;60949;-41
2023/03/05 09:48:16;;;;;;;4.50;1.40;;;;;;;4.66;41.93;98476.86;107226;1262;61531;-41
2023/03/05 09:50:50;;;;;;;4.50;1.60;;;;;;;4.82;41.71;98476.84;107136;1257;75206;-40
2023/03/05 09:53:27;;;;;;;3.50;1.40;;;;;;;4.87;41.37;98470.35;107132;1258;67682;-41
2023/03/05 09:55:57;;;;;;;6.50;1.80;;;;;;;4.79;41.79;98461.11;107097;1263;72636;-40
2023/03/05 09:58:46;;;;;;;3.10;1.30;;;;;;;4.87;42.01;98469.91;106380;1263;1002846;-41
2023/03/05 10:01:19;;;;;;;3.80;1.50;;;;;;;4.82;41.37;98471.63;107168;1263;60447;-41
2023/03/05 10:04:06;;;;;;;4.70;1.50;;;;;;;4.79;41.05;98476.91;107223;1258;75057;-41
2023/03/05 10:06:42;;;;;;;2.90;1.50;;;;;;;4.66;40.88;98477.77;107270;1258;69946;-41
2023/03/05 10:09:24;;;;;;;3.60;1.50;;;;;;;4.52;41.29;98474.77;107240;1262;73877;-41
2023/03/05 10:12:02;;;;;;;4.20;1.90;;;;;;;4.52;41.63;98471.64;107224;1257;60728;-41
2023/03/05 10:14:37;;;;;;;2.00;1.30;;;;;;;4.60;42.50;98476.02;107223;1258;61027;-41
2023/03/05 10:17:24;;;;;;;3.60;1.60;;;;;;;4.78;41.93;98470.52;107230;1257;75038;-41
2023/03/05 10:19:53;;;;;;;5.20;1.50;;;;;;;4.92;41.27;98466.74;107240;1257;69923;-41
2023/03/05 10:22:28;;;;;;;3.60;1.80;;;;;;;4.94;42.08;98464.19;107246;1262;73909;-41
2023/03/05 10:25:08;;;;;;;4.70;1.90;;;;;;;5.06;42.20;98457.52;107272;1257;60451;-41
2023/03/05 10:27:53;;;;;;;2.30;1.60;;;;;;;5.09;41.32;98458.91;107257;1258;61294;-41
2023/03/05 10:30:34;;;;;;;4.50;2.10;;;;;;;5.07;42.16;98461.55;107244;1257;75075;-41
2023/03/05 10:33:14;;;;;;;3.20;1.50;;;;;;;5.14;41.73;98451.52;107252;1262;68742;-41
2023/03/05 10:35:49;;;;;;;3.60;1.60;;;;;;;5.16;41.34;98452.02;107224;1257;72678;-41
2023/03/05 10:38:51;;;;;;;3.50;1.50;;;;;;;5.07;42.09;98458.02;107190;1257;61117;-41
2023/03/05 10:41:42;;;;;;;4.10;1.70;;;;;;;5.15;41.73;98449.93;107017;1257;60685;-41
2023/03/05 10:44:35;;;;;;;5.20;1.60;;;;;;;5.31;41.33;98449.56;106488;1257;1002911;-41
2023/03/05 10:47:12;;;;;;;3.80;1.90;;;;;;;5.45;41.13;98449.83;107048;1257;69965;-41
2023/03/05 10:49:47;;;;;;;4.80;1.70;;;;;;;5.42;40.77;98442.23;107216;1258;70616;-41
2023/03/05 10:52:34;;;;;;;5.10;2.10;;;;;;;5.27;41.57;98443.86;107247;1262;60511;-41
2023/03/05 10:55:15;;;;;;;6.80;2.00;;;;;;;5.07;41.47;98440.36;107211;1257;61569;-41
2023/03/05 10:57:45;;;;;;;2.80;1.50;;;;;;;4.82;41.19;98442.56;107237;1257;74526;-41
2023/03/05 11:00:20;;;;;;;3.70;1.60;;;;;;;4.70;41.70;98433.79;107248;1258;70043;-41
2023/03/05 11:03:00;;;;;;;2.50;1.50;;;;;;;4.97;41.54;98446.61;107130;1263;73797;-41
2023/03/05 11:05:49;;;;;;;;;;;;;;;5.24;40.92;98444.34;107209;1262;60576;-41
2023/03/05 11:08:26;;;;;;;3.80;1.70;;;;;;;5.31;40.51;98440.19;107235;1257;61282;-41
2023/03/05 11:11:02;;;;;;;4.20;1.50;;;;;;;5.40;39.53;98434.50;107204;1257;73918;-41
2023/03/05 11:13:42;;;;;;;2.50;1.30;;;;;;;5.46;38.85;98439.78;107217;1258;69840;-41
2023/03/05 11:16:16;;;;;;;3.10;1.60;;;;;;;5.39;39.77;98434.39;107120;1257;71730;-41
2023/03/05 11:18:48;;;;;;;3.10;1.50;;;;;;;5.44;39.71;98435.51;107096;1258;60752;-41
2023/03/05 11:21:26;;;;;;;4.30;1.50;;;;;;;5.42;39.24;98432.39;107142;1257;61716;-41
2023/03/05 11:24:15;;;;;;;4.20;1.80;;;;;;;5.27;38.96;98434.66;107174;1257;75012;-41
2023/03/05 11:26:53;;;;;;;5.40;2.10;;;;;;;5.00;39.80;98441.55;107135;1257;68866;-41
2023/03/05 11:29:25;;;;;;;5.30;1.80;;;;;;;4.77;40.57;98440.13;107150;1258;73896;-41
2023/03/05 11:31:53;;;;;;;2.70;1.70;;;;;;;4.62;41.10;98444.91;107266;1257;60668;-41
2023/03/05 11:34:29;;;;;;;5.50;2.10;;;;;;;4.42;40.84;98441.08;107235;1257;61565;-41
2023/03/05 11:37:03;;;;;;;2.30;1.40;;;;;;;4.31;41.79;98445.34;107256;1257;75029;-41
2023/03/05 11:39:34;;;;;;;5.80;1.80;;;;;;;4.37;42.23;98441.00;107249;1257;69215;-41
2023/03/05 11:42:05;;;;;;;3.40;1.60;;;;;;;4.45;41.79;98441.15;106483;1257;1003750;-41
2023/03/05 11:44:51;;;;;;;5.40;1.60;;;;;;;4.59;40.94;98438.94;107225;1257;61115;-41
2023/03/05 11:47:20;;;;;;;4.90;1.90;;;;;;;4.78;40.15;98435.08;107213;1257;61581;-41
2023/03/05 11:49:51;;;;;;;4.00;1.90;;;;;;;4.76;39.84;98436.00;107303;1257;74795;-41